This is the latest recevied weather packets stored in our database for station/object DG4MJS-10. If no packets are shown the sender has not sent any weather packets the latest 10 day(s).
| Time | Temp. | Humidity | Pressure | Rain* | Wind** | Luminosity | Snow |
|---|---|---|---|---|---|---|---|
| 1777905009 | 18.89° C | 47% | 1011.1 hPa | - | - | - | - |
| 1777904108 | 18.33° C | 50% | 1011.4 hPa | - | - | - | - |
| 1777903208 | 18.33° C | 49% | 1011.5 hPa | - | - | - | - |
| 1777902308 | 18.89° C | 45% | 1011.6 hPa | - | - | - | - |
| 1777901408 | 18.89° C | 48% | 1011.8 hPa | - | - | - | - |
| 1777900508 | 17.22° C | 53% | 1011.9 hPa | - | - | - | - |
| 1777899608 | 17.22° C | 54% | 1012.1 hPa | - | - | - | - |
| 1777898708 | 17.78° C | 50% | 1012.2 hPa | - | - | - | - |
| 1777897808 | 16.67° C | 54% | 1012.1 hPa | - | - | - | - |
| 1777896908 | 17.22° C | 49% | 1012.2 hPa | - | - | - | - |
| 1777896008 | 17.22° C | 52% | 1012.3 hPa | - | - | - | - |
| 1777895108 | 18.33° C | 48% | 1012.5 hPa | - | - | - | - |
| 1777894208 | 17.22° C | 52% | 1012.5 hPa | - | - | - | - |
| 1777893308 | 17.22° C | 52% | 1012.7 hPa | - | - | - | - |
| 1777892408 | 17.78° C | 48% | 1012.9 hPa | - | - | - | - |
| 1777891507 | 17.22° C | 48% | 1013 hPa | - | - | - | - |
| 1777890607 | 17.22° C | 50% | 1013.3 hPa | - | - | - | - |
| 1777889710 | 16.67° C | 54% | 1013.5 hPa | - | - | - | - |
| 1777888810 | 16.11° C | 55% | 1013.5 hPa | - | - | - | - |
| 1777887910 | 16.67° C | 51% | 1013.7 hPa | - | - | - | - |
| 1777887010 | 16.67° C | 53% | 1013.8 hPa | - | - | - | - |
| 1777886110 | 16.11° C | 55% | 1014.1 hPa | - | - | - | - |
| 1777885209 | 16.11° C | 56% | 1014.3 hPa | - | - | - | - |
| 1777884309 | 16.11° C | 56% | 1014.4 hPa | - | - | - | - |
| 1777883409 | 16.11° C | 55% | 1014.5 hPa | - | - | - | - |
* Rain since midnight (hover to see other rain measurements)
** Current wind speed in m/s (hover to see current wind gust speed)